RKTU/CHN METAR and TAF weather

Enter ICAO airport designator
Station Type Date Time Source
RKTU METAR 2020/04/06 17:00 UTC NOAA

RKTU 061700Z 25001KT CAVOK 06/M01 Q1018


Station Type Date Time Source
RKTU Decoded METAR 2020/04/06 17:00 UTC NOAA

Chongju Ab, Korea, South (RKTU) 36-42N 127-30E 66M
Apr 06, 2020 - 01:00 PM EDT / 2020.04.06 1700 UTC
Wind: from the WSW (250 degrees) at 1 MPH (1 KT):0
Visibility: greater than 7 mile(s):0
Temperature: 42 F (6 C)
Dew Point: 30 F (-1 C)
Relative Humidity: 60%
Pressure (altimeter): 30.06 in. Hg (1018 hPa)
ob: RKTU 061700Z 25001KT CAVOK 06/M01 Q1018
cycle: 17

Station Type Date Time Source
RKTU TAF 2020/04/06 18:09 UTC NOAA

TAF RKTU 061700Z 0618/0724 27006KT CAVOK TN01/0621Z TX19/0706Z

Example: see airport list